sensor_id;sensor_type;location;lat;lon;timestamp;temperature;humidity
15906;DHT22;8051;50.820;4.884;2024-01-30T00:02:05;7.10;99.90
15906;DHT22;8051;50.820;4.884;2024-01-30T00:04:32;7.10;99.90
15906;DHT22;8051;50.820;4.884;2024-01-30T00:07:00;7.10;99.90
15906;DHT22;8051;50.820;4.884;2024-01-30T00:09:29;7.10;99.90
15906;DHT22;8051;50.820;4.884;2024-01-30T00:11:57;7.10;99.90
15906;DHT22;8051;50.820;4.884;2024-01-30T00:14:25;7.00;99.90
15906;DHT22;8051;50.820;4.884;2024-01-30T00:16:53;7.00;99.90
15906;DHT22;8051;50.820;4.884;2024-01-30T00:19:20;7.00;99.90
15906;DHT22;8051;50.820;4.884;2024-01-30T00:21:48;7.00;99.90
15906;DHT22;8051;50.820;4.884;2024-01-30T00:24:16;7.00;99.90
15906;DHT22;8051;50.820;4.884;2024-01-30T00:26:46;7.00;99.90
15906;DHT22;8051;50.820;4.884;2024-01-30T00:29:13;7.10;99.90
15906;DHT22;8051;50.820;4.884;2024-01-30T00:31:45;7.10;99.90
15906;DHT22;8051;50.820;4.884;2024-01-30T00:34:13;7.10;99.90
15906;DHT22;8051;50.820;4.884;2024-01-30T00:36:41;7.10;99.90
15906;DHT22;8051;50.820;4.884;2024-01-30T00:39:08;7.00;99.90
15906;DHT22;8051;50.820;4.884;2024-01-30T00:41:36;7.00;99.90
15906;DHT22;8051;50.820;4.884;2024-01-30T00:44:05;7.00;99.90
15906;DHT22;8051;50.820;4.884;2024-01-30T00:46:33;6.90;99.90
15906;DHT22;8051;50.820;4.884;2024-01-30T00:49:01;6.90;99.90
15906;DHT22;8051;50.820;4.884;2024-01-30T00:51:28;6.90;99.90
15906;DHT22;8051;50.820;4.884;2024-01-30T00:53:56;6.90;99.90
15906;DHT22;8051;50.820;4.884;2024-01-30T00:56:24;6.90;99.90
15906;DHT22;8051;50.820;4.884;2024-01-30T00:58:52;6.90;99.90
15906;DHT22;8051;50.820;4.884;2024-01-30T01:01:21;6.90;99.90
15906;DHT22;8051;50.820;4.884;2024-01-30T01:03:48;6.90;99.90
15906;DHT22;8051;50.820;4.884;2024-01-30T01:06:16;6.90;99.90
15906;DHT22;8051;50.820;4.884;2024-01-30T01:08:43;6.90;99.90
15906;DHT22;8051;50.820;4.884;2024-01-30T01:11:11;6.90;99.90
15906;DHT22;8051;50.820;4.884;2024-01-30T01:13:39;7.00;99.90
15906;DHT22;8051;50.820;4.884;2024-01-30T01:16:06;7.10;99.90
15906;DHT22;8051;50.820;4.884;2024-01-30T01:18:35;7.20;99.90
15906;DHT22;8051;50.820;4.884;2024-01-30T01:21:03;7.20;99.90
15906;DHT22;8051;50.820;4.884;2024-01-30T01:23:31;7.30;99.90
15906;DHT22;8051;50.820;4.884;2024-01-30T01:25:59;7.40;99.90
15906;DHT22;8051;50.820;4.884;2024-01-30T01:28:27;7.50;99.90
15906;DHT22;8051;50.820;4.884;2024-01-30T01:30:54;7.60;99.90
15906;DHT22;8051;50.820;4.884;2024-01-30T01:33:31;7.60;99.90
15906;DHT22;8051;50.820;4.884;2024-01-30T01:36:00;7.70;99.90
15906;DHT22;8051;50.820;4.884;2024-01-30T01:38:28;7.70;99.90
15906;DHT22;8051;50.820;4.884;2024-01-30T01:40:56;7.70;99.90
15906;DHT22;8051;50.820;4.884;2024-01-30T01:43:24;7.70;99.90
15906;DHT22;8051;50.820;4.884;2024-01-30T01:45:51;7.70;99.90
15906;DHT22;8051;50.820;4.884;2024-01-30T01:48:19;7.80;99.90
15906;DHT22;8051;50.820;4.884;2024-01-30T01:50:48;7.80;99.90
15906;DHT22;8051;50.820;4.884;2024-01-30T01:53:17;7.80;99.90
15906;DHT22;8051;50.820;4.884;2024-01-30T01:55:45;7.70;99.90
15906;DHT22;8051;50.820;4.884;2024-01-30T01:58:14;7.80;99.90
15906;DHT22;8051;50.820;4.884;2024-01-30T02:00:41;7.90;99.90
15906;DHT22;8051;50.820;4.884;2024-01-30T02:03:10;7.90;99.90
15906;DHT22;8051;50.820;4.884;2024-01-30T02:05:39;8.00;99.90
15906;DHT22;8051;50.820;4.884;2024-01-30T02:08:08;7.90;99.90
15906;DHT22;8051;50.820;4.884;2024-01-30T02:10:37;7.90;99.90
15906;DHT22;8051;50.820;4.884;2024-01-30T02:13:05;7.90;99.90
15906;DHT22;8051;50.820;4.884;2024-01-30T02:15:33;7.90;99.90
15906;DHT22;8051;50.820;4.884;2024-01-30T02:18:00;7.90;99.90
15906;DHT22;8051;50.820;4.884;2024-01-30T02:20:30;7.90;99.90
15906;DHT22;8051;50.820;4.884;2024-01-30T02:23:01;7.80;99.90
15906;DHT22;8051;50.820;4.884;2024-01-30T02:25:33;7.80;99.90
15906;DHT22;8051;50.820;4.884;2024-01-30T02:28:00;7.80;99.90
15906;DHT22;8051;50.820;4.884;2024-01-30T02:30:28;7.80;99.90
15906;DHT22;8051;50.820;4.884;2024-01-30T02:32:55;7.80;99.90
15906;DHT22;8051;50.820;4.884;2024-01-30T02:35:23;7.80;99.90
15906;DHT22;8051;50.820;4.884;2024-01-30T02:37:50;7.70;99.90
15906;DHT22;8051;50.820;4.884;2024-01-30T02:40:19;7.70;99.90
15906;DHT22;8051;50.820;4.884;2024-01-30T02:42:46;7.70;99.90
15906;DHT22;8051;50.820;4.884;2024-01-30T02:45:14;7.70;99.90
15906;DHT22;8051;50.820;4.884;2024-01-30T02:47:42;7.80;99.90
15906;DHT22;8051;50.820;4.884;2024-01-30T02:50:09;7.70;99.90
15906;DHT22;8051;50.820;4.884;2024-01-30T02:52:37;7.80;99.90
15906;DHT22;8051;50.820;4.884;2024-01-30T02:55:05;7.70;99.90
15906;DHT22;8051;50.820;4.884;2024-01-30T02:57:34;7.70;99.90
15906;DHT22;8051;50.820;4.884;2024-01-30T03:00:02;7.80;99.90
15906;DHT22;8051;50.820;4.884;2024-01-30T03:02:32;7.80;99.90
15906;DHT22;8051;50.820;4.884;2024-01-30T03:04:59;7.80;99.90
15906;DHT22;8051;50.820;4.884;2024-01-30T03:07:27;7.80;99.90
15906;DHT22;8051;50.820;4.884;2024-01-30T03:09:54;7.80;99.90
15906;DHT22;8051;50.820;4.884;2024-01-30T03:12:22;7.90;99.90
15906;DHT22;8051;50.820;4.884;2024-01-30T03:14:51;7.90;99.90
15906;DHT22;8051;50.820;4.884;2024-01-30T03:17:18;8.00;99.90
15906;DHT22;8051;50.820;4.884;2024-01-30T03:19:46;8.00;99.90
15906;DHT22;8051;50.820;4.884;2024-01-30T03:22:13;8.10;99.90
15906;DHT22;8051;50.820;4.884;2024-01-30T03:24:41;8.20;99.90
15906;DHT22;8051;50.820;4.884;2024-01-30T03:27:08;8.30;99.90
15906;DHT22;8051;50.820;4.884;2024-01-30T03:29:36;8.30;99.90
15906;DHT22;8051;50.820;4.884;2024-01-30T03:32:05;8.40;99.90
15906;DHT22;8051;50.820;4.884;2024-01-30T03:34:32;8.40;99.90
15906;DHT22;8051;50.820;4.884;2024-01-30T03:37:00;8.50;99.90
15906;DHT22;8051;50.820;4.884;2024-01-30T03:39:27;8.50;99.90
15906;DHT22;8051;50.820;4.884;2024-01-30T03:41:55;8.50;99.90
15906;DHT22;8051;50.820;4.884;2024-01-30T03:44:22;8.60;99.90
15906;DHT22;8051;50.820;4.884;2024-01-30T03:46:50;8.60;99.90
15906;DHT22;8051;50.820;4.884;2024-01-30T03:49:19;8.70;99.90
15906;DHT22;8051;50.820;4.884;2024-01-30T03:51:46;8.70;99.90
15906;DHT22;8051;50.820;4.884;2024-01-30T03:54:14;8.80;99.90
15906;DHT22;8051;50.820;4.884;2024-01-30T03:56:41;8.80;99.90
15906;DHT22;8051;50.820;4.884;2024-01-30T03:59:09;8.90;99.90
15906;DHT22;8051;50.820;4.884;2024-01-30T04:01:36;8.90;99.90
15906;DHT22;8051;50.820;4.884;2024-01-30T04:04:04;9.00;99.90
15906;DHT22;8051;50.820;4.884;2024-01-30T04:06:32;8.90;99.90
15906;DHT22;8051;50.820;4.884;2024-01-30T04:08:59;8.90;99.90
15906;DHT22;8051;50.820;4.884;2024-01-30T04:11:27;8.90;99.90
15906;DHT22;8051;50.820;4.884;2024-01-30T04:13:54;8.90;99.90
15906;DHT22;8051;50.820;4.884;2024-01-30T04:16:22;8.90;99.90
15906;DHT22;8051;50.820;4.884;2024-01-30T04:18:50;9.00;99.90
15906;DHT22;8051;50.820;4.884;2024-01-30T04:21:20;9.00;99.90
15906;DHT22;8051;50.820;4.884;2024-01-30T04:23:49;9.10;99.90
15906;DHT22;8051;50.820;4.884;2024-01-30T04:26:16;9.10;99.90
15906;DHT22;8051;50.820;4.884;2024-01-30T04:28:44;9.10;99.90
15906;DHT22;8051;50.820;4.884;2024-01-30T04:31:12;9.10;99.90
15906;DHT22;8051;50.820;4.884;2024-01-30T04:33:40;9.10;99.90
15906;DHT22;8051;50.820;4.884;2024-01-30T04:36:08;9.10;99.90
15906;DHT22;8051;50.820;4.884;2024-01-30T04:38:37;9.10;99.90
15906;DHT22;8051;50.820;4.884;2024-01-30T04:41:06;9.10;99.90
15906;DHT22;8051;50.820;4.884;2024-01-30T04:43:34;9.10;99.90
15906;DHT22;8051;50.820;4.884;2024-01-30T04:46:01;9.10;99.90
15906;DHT22;8051;50.820;4.884;2024-01-30T04:48:29;9.10;99.90
15906;DHT22;8051;50.820;4.884;2024-01-30T04:50:56;9.10;99.90
15906;DHT22;8051;50.820;4.884;2024-01-30T04:53:24;9.20;99.90
15906;DHT22;8051;50.820;4.884;2024-01-30T04:55:51;9.20;99.90
15906;DHT22;8051;50.820;4.884;2024-01-30T04:58:20;9.20;99.90
15906;DHT22;8051;50.820;4.884;2024-01-30T05:00:47;9.20;99.90
15906;DHT22;8051;50.820;4.884;2024-01-30T05:03:17;9.20;99.90
15906;DHT22;8051;50.820;4.884;2024-01-30T05:05:45;9.20;99.90
15906;DHT22;8051;50.820;4.884;2024-01-30T05:08:12;9.20;99.90
15906;DHT22;8051;50.820;4.884;2024-01-30T05:10:39;9.30;99.90
15906;DHT22;8051;50.820;4.884;2024-01-30T05:13:07;9.20;99.90
15906;DHT22;8051;50.820;4.884;2024-01-30T05:15:36;9.10;99.90
15906;DHT22;8051;50.820;4.884;2024-01-30T05:18:04;9.10;99.90
15906;DHT22;8051;50.820;4.884;2024-01-30T05:20:31;9.10;99.90
15906;DHT22;8051;50.820;4.884;2024-01-30T05:22:59;9.10;99.90
15906;DHT22;8051;50.820;4.884;2024-01-30T05:25:26;9.20;99.90
15906;DHT22;8051;50.820;4.884;2024-01-30T05:27:53;9.20;99.90
15906;DHT22;8051;50.820;4.884;2024-01-30T05:30:21;9.20;99.90
15906;DHT22;8051;50.820;4.884;2024-01-30T05:32:50;9.20;99.90
15906;DHT22;8051;50.820;4.884;2024-01-30T05:35:18;9.30;99.90
15906;DHT22;8051;50.820;4.884;2024-01-30T05:37:47;9.30;99.90
15906;DHT22;8051;50.820;4.884;2024-01-30T05:40:15;9.30;99.90
15906;DHT22;8051;50.820;4.884;2024-01-30T05:42:42;9.30;99.90
15906;DHT22;8051;50.820;4.884;2024-01-30T05:45:10;9.30;99.90
15906;DHT22;8051;50.820;4.884;2024-01-30T05:47:37;9.40;99.90
15906;DHT22;8051;50.820;4.884;2024-01-30T05:50:07;9.40;99.90
15906;DHT22;8051;50.820;4.884;2024-01-30T05:52:35;9.40;99.90
15906;DHT22;8051;50.820;4.884;2024-01-30T05:55:04;9.40;99.90
15906;DHT22;8051;50.820;4.884;2024-01-30T05:57:32;9.40;99.90
15906;DHT22;8051;50.820;4.884;2024-01-30T05:59:59;9.30;99.90
15906;DHT22;8051;50.820;4.884;2024-01-30T06:02:26;9.30;99.90
15906;DHT22;8051;50.820;4.884;2024-01-30T06:04:54;9.40;99.90
15906;DHT22;8051;50.820;4.884;2024-01-30T06:07:23;9.40;99.90
15906;DHT22;8051;50.820;4.884;2024-01-30T06:09:50;9.40;99.90
15906;DHT22;8051;50.820;4.884;2024-01-30T06:12:18;9.40;99.90
15906;DHT22;8051;50.820;4.884;2024-01-30T06:14:45;9.40;99.90
15906;DHT22;8051;50.820;4.884;2024-01-30T06:17:13;9.40;99.90
15906;DHT22;8051;50.820;4.884;2024-01-30T06:19:41;9.40;99.90
15906;DHT22;8051;50.820;4.884;2024-01-30T06:22:08;9.40;99.90
15906;DHT22;8051;50.820;4.884;2024-01-30T06:24:37;9.30;99.90
15906;DHT22;8051;50.820;4.884;2024-01-30T06:27:05;9.30;99.90
15906;DHT22;8051;50.820;4.884;2024-01-30T06:29:32;9.30;99.90
15906;DHT22;8051;50.820;4.884;2024-01-30T06:31:59;9.30;99.90
15906;DHT22;8051;50.820;4.884;2024-01-30T06:34:27;9.30;99.90
15906;DHT22;8051;50.820;4.884;2024-01-30T06:36:54;9.30;99.90
15906;DHT22;8051;50.820;4.884;2024-01-30T06:39:22;9.30;99.90
15906;DHT22;8051;50.820;4.884;2024-01-30T06:41:51;9.30;99.90
15906;DHT22;8051;50.820;4.884;2024-01-30T06:44:18;9.30;99.90
15906;DHT22;8051;50.820;4.884;2024-01-30T06:46:46;9.30;99.90
15906;DHT22;8051;50.820;4.884;2024-01-30T06:49:13;9.30;99.90
15906;DHT22;8051;50.820;4.884;2024-01-30T06:51:41;9.30;99.90
15906;DHT22;8051;50.820;4.884;2024-01-30T06:54:08;9.30;99.90
15906;DHT22;8051;50.820;4.884;2024-01-30T06:56:36;9.20;99.90
15906;DHT22;8051;50.820;4.884;2024-01-30T06:59:04;9.20;99.90
15906;DHT22;8051;50.820;4.884;2024-01-30T07:01:32;9.10;99.90
15906;DHT22;8051;50.820;4.884;2024-01-30T07:04:00;9.10;99.90
15906;DHT22;8051;50.820;4.884;2024-01-30T07:06:27;9.10;99.90
15906;DHT22;8051;50.820;4.884;2024-01-30T07:08:55;9.10;99.90
15906;DHT22;8051;50.820;4.884;2024-01-30T07:11:22;9.10;99.90
15906;DHT22;8051;50.820;4.884;2024-01-30T07:13:51;9.10;99.90
15906;DHT22;8051;50.820;4.884;2024-01-30T07:16:20;9.10;99.90
15906;DHT22;8051;50.820;4.884;2024-01-30T07:18:48;9.10;99.90
15906;DHT22;8051;50.820;4.884;2024-01-30T07:21:15;9.10;99.90
15906;DHT22;8051;50.820;4.884;2024-01-30T07:23:43;9.10;99.90
15906;DHT22;8051;50.820;4.884;2024-01-30T07:26:11;9.20;99.90
15906;DHT22;8051;50.820;4.884;2024-01-30T07:28:38;9.10;99.90
15906;DHT22;8051;50.820;4.884;2024-01-30T07:31:06;9.10;99.90
15906;DHT22;8051;50.820;4.884;2024-01-30T07:33:35;9.10;99.90
15906;DHT22;8051;50.820;4.884;2024-01-30T07:36:02;9.10;99.90
15906;DHT22;8051;50.820;4.884;2024-01-30T07:38:32;9.10;99.90
15906;DHT22;8051;50.820;4.884;2024-01-30T07:40:59;9.10;99.90
15906;DHT22;8051;50.820;4.884;2024-01-30T07:43:27;9.20;99.90
15906;DHT22;8051;50.820;4.884;2024-01-30T07:45:54;9.30;99.90
15906;DHT22;8051;50.820;4.884;2024-01-30T07:48:22;9.40;99.90
15906;DHT22;8051;50.820;4.884;2024-01-30T07:50:50;9.40;99.90
15906;DHT22;8051;50.820;4.884;2024-01-30T07:53:19;9.50;99.90
15906;DHT22;8051;50.820;4.884;2024-01-30T07:55:49;9.50;99.90
15906;DHT22;8051;50.820;4.884;2024-01-30T07:58:16;9.60;99.90
15906;DHT22;8051;50.820;4.884;2024-01-30T08:00:45;9.60;99.90
15906;DHT22;8051;50.820;4.884;2024-01-30T08:03:12;9.70;99.90
15906;DHT22;8051;50.820;4.884;2024-01-30T08:05:42;9.70;99.90
15906;DHT22;8051;50.820;4.884;2024-01-30T08:08:11;9.70;99.90
15906;DHT22;8051;50.820;4.884;2024-01-30T08:10:39;9.70;99.90
15906;DHT22;8051;50.820;4.884;2024-01-30T08:13:06;9.70;99.90
15906;DHT22;8051;50.820;4.884;2024-01-30T08:15:34;9.80;99.90
15906;DHT22;8051;50.820;4.884;2024-01-30T08:18:02;9.80;99.90
15906;DHT22;8051;50.820;4.884;2024-01-30T08:20:31;9.90;99.90
15906;DHT22;8051;50.820;4.884;2024-01-30T08:22:58;10.00;99.90
15906;DHT22;8051;50.820;4.884;2024-01-30T08:25:28;10.10;99.90
15906;DHT22;8051;50.820;4.884;2024-01-30T08:27:55;10.20;99.90
15906;DHT22;8051;50.820;4.884;2024-01-30T08:30:24;10.30;99.90
15906;DHT22;8051;50.820;4.884;2024-01-30T08:32:51;10.40;99.90
15906;DHT22;8051;50.820;4.884;2024-01-30T08:35:19;10.40;99.90
15906;DHT22;8051;50.820;4.884;2024-01-30T08:37:46;10.40;99.90
15906;DHT22;8051;50.820;4.884;2024-01-30T08:40:14;10.40;99.90
15906;DHT22;8051;50.820;4.884;2024-01-30T08:42:43;10.40;99.90
15906;DHT22;8051;50.820;4.884;2024-01-30T08:45:10;10.50;99.90
15906;DHT22;8051;50.820;4.884;2024-01-30T08:47:38;10.50;99.90
15906;DHT22;8051;50.820;4.884;2024-01-30T08:50:06;10.50;99.90
15906;DHT22;8051;50.820;4.884;2024-01-30T08:52:34;10.60;99.90
15906;DHT22;8051;50.820;4.884;2024-01-30T08:55:02;10.60;99.90
15906;DHT22;8051;50.820;4.884;2024-01-30T08:57:30;10.60;99.90
15906;DHT22;8051;50.820;4.884;2024-01-30T08:59:59;10.60;99.90
15906;DHT22;8051;50.820;4.884;2024-01-30T09:02:30;10.70;99.90
15906;DHT22;8051;50.820;4.884;2024-01-30T09:04:57;10.70;99.90
15906;DHT22;8051;50.820;4.884;2024-01-30T09:07:25;10.80;99.90
15906;DHT22;8051;50.820;4.884;2024-01-30T09:09:52;10.80;99.90
15906;DHT22;8051;50.820;4.884;2024-01-30T09:12:19;10.90;99.90
15906;DHT22;8051;50.820;4.884;2024-01-30T09:14:47;10.90;99.90
15906;DHT22;8051;50.820;4.884;2024-01-30T09:17:14;11.10;99.90
15906;DHT22;8051;50.820;4.884;2024-01-30T09:19:42;11.20;99.90
15906;DHT22;8051;50.820;4.884;2024-01-30T09:22:09;11.40;99.90
15906;DHT22;8051;50.820;4.884;2024-01-30T09:24:37;11.50;99.90
15906;DHT22;8051;50.820;4.884;2024-01-30T09:27:04;11.50;99.90
15906;DHT22;8051;50.820;4.884;2024-01-30T09:29:32;11.60;99.90
15906;DHT22;8051;50.820;4.884;2024-01-30T09:32:02;11.60;99.90
15906;DHT22;8051;50.820;4.884;2024-01-30T09:34:32;11.60;99.90
15906;DHT22;8051;50.820;4.884;2024-01-30T09:37:00;11.60;99.90
15906;DHT22;8051;50.820;4.884;2024-01-30T09:39:28;11.50;99.90
15906;DHT22;8051;50.820;4.884;2024-01-30T09:42:02;11.40;99.90
15906;DHT22;8051;50.820;4.884;2024-01-30T09:44:34;11.50;99.90
15906;DHT22;8051;50.820;4.884;2024-01-30T09:47:02;11.50;99.90
15906;DHT22;8051;50.820;4.884;2024-01-30T09:49:34;11.60;99.90
15906;DHT22;8051;50.820;4.884;2024-01-30T09:52:02;11.60;99.90
15906;DHT22;8051;50.820;4.884;2024-01-30T09:54:30;11.60;99.90
15906;DHT22;8051;50.820;4.884;2024-01-30T09:56:58;11.60;99.90
15906;DHT22;8051;50.820;4.884;2024-01-30T09:59:26;11.50;99.90
15906;DHT22;8051;50.820;4.884;2024-01-30T10:01:53;11.50;99.90
15906;DHT22;8051;50.820;4.884;2024-01-30T10:04:22;11.40;99.90
15906;DHT22;8051;50.820;4.884;2024-01-30T10:06:51;11.40;99.90
15906;DHT22;8051;50.820;4.884;2024-01-30T10:09:19;11.40;99.90
15906;DHT22;8051;50.820;4.884;2024-01-30T10:11:48;11.40;99.90
15906;DHT22;8051;50.820;4.884;2024-01-30T10:14:16;11.40;99.90
15906;DHT22;8051;50.820;4.884;2024-01-30T10:16:45;11.40;99.90
15906;DHT22;8051;50.820;4.884;2024-01-30T10:19:13;11.50;99.90
15906;DHT22;8051;50.820;4.884;2024-01-30T10:21:40;11.50;99.90
15906;DHT22;8051;50.820;4.884;2024-01-30T10:24:10;11.50;99.90
15906;DHT22;8051;50.820;4.884;2024-01-30T10:26:39;11.60;99.90
15906;DHT22;8051;50.820;4.884;2024-01-30T10:29:07;11.60;99.90
15906;DHT22;8051;50.820;4.884;2024-01-30T10:31:34;11.60;99.90
15906;DHT22;8051;50.820;4.884;2024-01-30T10:34:02;11.60;99.90
15906;DHT22;8051;50.820;4.884;2024-01-30T10:36:29;11.60;99.90
15906;DHT22;8051;50.820;4.884;2024-01-30T10:39:00;11.70;99.90
15906;DHT22;8051;50.820;4.884;2024-01-30T10:41:31;11.70;99.90
15906;DHT22;8051;50.820;4.884;2024-01-30T10:44:08;11.80;99.90
15906;DHT22;8051;50.820;4.884;2024-01-30T10:46:37;11.80;99.90
15906;DHT22;8051;50.820;4.884;2024-01-30T10:49:05;11.70;99.90
15906;DHT22;8051;50.820;4.884;2024-01-30T10:51:34;11.60;99.90
15906;DHT22;8051;50.820;4.884;2024-01-30T10:54:05;11.60;99.90
15906;DHT22;8051;50.820;4.884;2024-01-30T10:56:35;11.60;99.90
15906;DHT22;8051;50.820;4.884;2024-01-30T10:59:04;11.60;99.90
15906;DHT22;8051;50.820;4.884;2024-01-30T11:01:31;11.50;99.90
15906;DHT22;8051;50.820;4.884;2024-01-30T11:03:59;11.40;99.90
15906;DHT22;8051;50.820;4.884;2024-01-30T11:06:26;11.50;99.90
15906;DHT22;8051;50.820;4.884;2024-01-30T11:09:01;11.50;99.90
15906;DHT22;8051;50.820;4.884;2024-01-30T11:11:30;11.60;99.90
15906;DHT22;8051;50.820;4.884;2024-01-30T11:14:02;11.70;99.90
15906;DHT22;8051;50.820;4.884;2024-01-30T11:16:32;11.80;99.90
15906;DHT22;8051;50.820;4.884;2024-01-30T11:19:01;11.90;99.90
15906;DHT22;8051;50.820;4.884;2024-01-30T11:21:28;11.90;99.90
15906;DHT22;8051;50.820;4.884;2024-01-30T11:23:57;12.00;99.90
15906;DHT22;8051;50.820;4.884;2024-01-30T11:26:28;12.00;99.90
15906;DHT22;8051;50.820;4.884;2024-01-30T11:28:56;12.10;99.90
15906;DHT22;8051;50.820;4.884;2024-01-30T11:31:25;12.10;99.90
15906;DHT22;8051;50.820;4.884;2024-01-30T11:33:53;12.10;99.90
15906;DHT22;8051;50.820;4.884;2024-01-30T11:36:25;12.20;99.90
15906;DHT22;8051;50.820;4.884;2024-01-30T11:38:54;12.10;99.90
15906;DHT22;8051;50.820;4.884;2024-01-30T11:41:22;12.00;99.90
15906;DHT22;8051;50.820;4.884;2024-01-30T11:43:54;11.90;99.90
15906;DHT22;8051;50.820;4.884;2024-01-30T11:46:22;11.80;99.90
15906;DHT22;8051;50.820;4.884;2024-01-30T11:48:53;11.80;99.90
15906;DHT22;8051;50.820;4.884;2024-01-30T11:51:21;11.70;99.90
15906;DHT22;8051;50.820;4.884;2024-01-30T11:53:50;11.60;99.90
15906;DHT22;8051;50.820;4.884;2024-01-30T11:56:17;11.50;99.90
15906;DHT22;8051;50.820;4.884;2024-01-30T11:58:45;11.40;99.90
15906;DHT22;8051;50.820;4.884;2024-01-30T12:01:12;11.30;99.90
15906;DHT22;8051;50.820;4.884;2024-01-30T12:03:40;11.30;99.90
15906;DHT22;8051;50.820;4.884;2024-01-30T12:06:08;11.20;99.90
15906;DHT22;8051;50.820;4.884;2024-01-30T12:08:35;11.30;99.90
15906;DHT22;8051;50.820;4.884;2024-01-30T12:11:06;11.30;99.90
15906;DHT22;8051;50.820;4.884;2024-01-30T12:13:33;11.40;99.90
15906;DHT22;8051;50.820;4.884;2024-01-30T12:16:01;11.40;99.90
15906;DHT22;8051;50.820;4.884;2024-01-30T12:18:28;11.50;99.90
15906;DHT22;8051;50.820;4.884;2024-01-30T12:20:58;11.60;99.90
15906;DHT22;8051;50.820;4.884;2024-01-30T12:23:28;11.70;99.90
15906;DHT22;8051;50.820;4.884;2024-01-30T12:25:56;11.80;99.90
15906;DHT22;8051;50.820;4.884;2024-01-30T12:28:24;11.80;99.90
15906;DHT22;8051;50.820;4.884;2024-01-30T12:30:55;11.80;99.90
15906;DHT22;8051;50.820;4.884;2024-01-30T12:33:26;11.70;99.90
15906;DHT22;8051;50.820;4.884;2024-01-30T12:35:53;11.70;99.90
15906;DHT22;8051;50.820;4.884;2024-01-30T12:38:21;11.60;99.90
15906;DHT22;8051;50.820;4.884;2024-01-30T12:40:54;11.60;99.90
15906;DHT22;8051;50.820;4.884;2024-01-30T12:43:22;11.60;99.90
15906;DHT22;8051;50.820;4.884;2024-01-30T12:45:50;11.50;99.90
15906;DHT22;8051;50.820;4.884;2024-01-30T12:48:17;11.60;99.90
15906;DHT22;8051;50.820;4.884;2024-01-30T12:50:45;11.60;99.90
15906;DHT22;8051;50.820;4.884;2024-01-30T12:53:12;11.60;99.90
15906;DHT22;8051;50.820;4.884;2024-01-30T12:55:40;11.60;99.90
15906;DHT22;8051;50.820;4.884;2024-01-30T12:58:09;11.50;99.90
15906;DHT22;8051;50.820;4.884;2024-01-30T13:00:36;11.50;99.90
15906;DHT22;8051;50.820;4.884;2024-01-30T13:03:04;11.50;99.90
15906;DHT22;8051;50.820;4.884;2024-01-30T13:05:32;11.60;99.90
15906;DHT22;8051;50.820;4.884;2024-01-30T13:07:59;11.70;99.90
15906;DHT22;8051;50.820;4.884;2024-01-30T13:10:26;11.70;99.90
15906;DHT22;8051;50.820;4.884;2024-01-30T13:12:54;11.70;99.90
15906;DHT22;8051;50.820;4.884;2024-01-30T13:15:23;11.80;99.90
15906;DHT22;8051;50.820;4.884;2024-01-30T13:17:50;11.70;99.90
15906;DHT22;8051;50.820;4.884;2024-01-30T13:20:20;11.60;99.90
15906;DHT22;8051;50.820;4.884;2024-01-30T13:22:48;11.60;99.90
15906;DHT22;8051;50.820;4.884;2024-01-30T13:25:16;11.60;99.90
15906;DHT22;8051;50.820;4.884;2024-01-30T13:27:44;11.70;99.90
15906;DHT22;8051;50.820;4.884;2024-01-30T13:30:11;11.70;99.90
15906;DHT22;8051;50.820;4.884;2024-01-30T13:32:41;11.70;99.90
15906;DHT22;8051;50.820;4.884;2024-01-30T13:35:10;11.70;99.90
15906;DHT22;8051;50.820;4.884;2024-01-30T13:37:37;11.60;99.90
15906;DHT22;8051;50.820;4.884;2024-01-30T13:40:06;11.50;99.90
15906;DHT22;8051;50.820;4.884;2024-01-30T13:42:34;11.30;99.90
15906;DHT22;8051;50.820;4.884;2024-01-30T13:45:02;11.10;99.90
15906;DHT22;8051;50.820;4.884;2024-01-30T13:47:30;10.80;99.90
15906;DHT22;8051;50.820;4.884;2024-01-30T13:49:59;10.80;99.90
15906;DHT22;8051;50.820;4.884;2024-01-30T13:52:26;10.80;99.90
15906;DHT22;8051;50.820;4.884;2024-01-30T13:54:54;11.10;99.90
15906;DHT22;8051;50.820;4.884;2024-01-30T13:57:21;11.30;99.90
15906;DHT22;8051;50.820;4.884;2024-01-30T13:59:49;11.60;99.90
15906;DHT22;8051;50.820;4.884;2024-01-30T14:02:16;11.80;99.90
15906;DHT22;8051;50.820;4.884;2024-01-30T14:04:44;11.90;99.90
15906;DHT22;8051;50.820;4.884;2024-01-30T14:07:13;11.80;99.90
15906;DHT22;8051;50.820;4.884;2024-01-30T14:09:40;11.80;99.90
15906;DHT22;8051;50.820;4.884;2024-01-30T14:12:08;11.70;99.90
15906;DHT22;8051;50.820;4.884;2024-01-30T14:14:35;11.50;99.90
15906;DHT22;8051;50.820;4.884;2024-01-30T14:17:03;11.40;99.90
15906;DHT22;8051;50.820;4.884;2024-01-30T14:19:32;11.30;99.90
15906;DHT22;8051;50.820;4.884;2024-01-30T14:22:00;11.20;99.90
15906;DHT22;8051;50.820;4.884;2024-01-30T14:24:29;11.10;99.90
15906;DHT22;8051;50.820;4.884;2024-01-30T14:26:56;11.00;99.90
15906;DHT22;8051;50.820;4.884;2024-01-30T14:29:25;10.90;99.90
15906;DHT22;8051;50.820;4.884;2024-01-30T14:31:53;10.80;99.90
15906;DHT22;8051;50.820;4.884;2024-01-30T14:34:20;10.80;99.90
15906;DHT22;8051;50.820;4.884;2024-01-30T14:36:48;10.80;99.90
15906;DHT22;8051;50.820;4.884;2024-01-30T14:39:15;10.90;99.90
15906;DHT22;8051;50.820;4.884;2024-01-30T14:41:45;11.00;99.90
15906;DHT22;8051;50.820;4.884;2024-01-30T14:44:12;11.10;99.90
15906;DHT22;8051;50.820;4.884;2024-01-30T14:46:40;11.10;99.90
15906;DHT22;8051;50.820;4.884;2024-01-30T14:49:08;11.10;99.90
15906;DHT22;8051;50.820;4.884;2024-01-30T14:51:35;11.00;99.90
15906;DHT22;8051;50.820;4.884;2024-01-30T14:54:03;10.90;99.90
15906;DHT22;8051;50.820;4.884;2024-01-30T14:56:31;10.80;99.90
15906;DHT22;8051;50.820;4.884;2024-01-30T14:59:00;10.80;99.90
15906;DHT22;8051;50.820;4.884;2024-01-30T15:01:28;10.80;99.90
15906;DHT22;8051;50.820;4.884;2024-01-30T15:03:55;10.80;99.90
15906;DHT22;8051;50.820;4.884;2024-01-30T15:06:23;10.80;99.90
15906;DHT22;8051;50.820;4.884;2024-01-30T15:08:50;10.70;99.90
15906;DHT22;8051;50.820;4.884;2024-01-30T15:11:18;10.70;99.90
15906;DHT22;8051;50.820;4.884;2024-01-30T15:13:45;10.70;99.90
15906;DHT22;8051;50.820;4.884;2024-01-30T15:16:14;10.70;99.90
15906;DHT22;8051;50.820;4.884;2024-01-30T15:18:42;10.60;99.90
15906;DHT22;8051;50.820;4.884;2024-01-30T15:21:09;10.60;99.90
15906;DHT22;8051;50.820;4.884;2024-01-30T15:23:37;10.60;99.90
15906;DHT22;8051;50.820;4.884;2024-01-30T15:26:04;10.50;99.90
15906;DHT22;8051;50.820;4.884;2024-01-30T15:28:36;10.50;99.90
15906;DHT22;8051;50.820;4.884;2024-01-30T15:31:04;10.50;99.90
15906;DHT22;8051;50.820;4.884;2024-01-30T15:33:33;10.50;99.90
15906;DHT22;8051;50.820;4.884;2024-01-30T15:36:01;10.40;99.90
15906;DHT22;8051;50.820;4.884;2024-01-30T15:38:29;10.40;99.90
15906;DHT22;8051;50.820;4.884;2024-01-30T15:40:57;10.30;99.90
15906;DHT22;8051;50.820;4.884;2024-01-30T15:43:24;10.30;99.90
15906;DHT22;8051;50.820;4.884;2024-01-30T15:45:52;10.20;99.90
15906;DHT22;8051;50.820;4.884;2024-01-30T15:48:20;10.20;99.90
15906;DHT22;8051;50.820;4.884;2024-01-30T15:50:49;10.20;99.90
15906;DHT22;8051;50.820;4.884;2024-01-30T15:53:16;10.10;99.90
15906;DHT22;8051;50.820;4.884;2024-01-30T15:55:44;10.10;99.90
15906;DHT22;8051;50.820;4.884;2024-01-30T15:58:11;10.00;99.90
15906;DHT22;8051;50.820;4.884;2024-01-30T16:00:39;10.00;99.90